Time;durP1;ratioP1;P1;durP2;ratioP2;P2;SDS_P1;SDS_P2;PMS_P1;PMS_P2;Temp;Humidity;BMP_temperature;BMP_pressure;BME280_temperature;BME280_humidity;BME280_pressure;Samples;Min_cycle;Max_cycle;Signal;HPM_P1;HPM_P2
2021/12/16 00:01:51;;;;;;;18.58;13.68;;;;;;;-144.99;100.00;57660.31;346246;28;1060;-70
2021/12/16 00:02:03;;;;;;;18.13;12.95;;;;;;;-144.99;100.00;57660.31;345853;28;1516;-70
2021/12/16 00:02:17;;;;;;;18.05;12.88;;;;;;;-144.99;100.00;57660.31;345203;28;1032;-70
2021/12/16 00:02:52;;;;;;;18.35;12.98;;;;;;;-144.99;100.00;57660.31;345366;28;1348;-70
2021/12/16 00:05:31;;;;;;;17.40;12.75;;;;;;;-144.99;100.00;57660.31;345278;28;1033;-70
2021/12/16 00:07:52;;;;;;;18.27;13.63;;;;;;;-144.99;100.00;57660.31;344941;28;1074;-69
2021/12/16 00:08:15;;;;;;;18.65;13.13;;;;;;;-144.99;100.00;57660.31;345134;28;1078;-70
2021/12/16 00:08:37;;;;;;;21.00;14.07;;;;;;;-144.99;100.00;57660.31;344585;28;1911;-70
2021/12/16 00:09:00;;;;;;;21.23;14.77;;;;;;;-144.99;100.00;57660.31;343658;28;1289;-69
2021/12/16 00:09:19;;;;;;;18.75;13.63;;;;;;;-144.99;100.00;57660.31;344430;28;1975;-70
2021/12/16 00:10:18;;;;;;;19.58;13.90;;;;;;;-144.99;100.00;57660.31;344889;28;1029;-69
2021/12/16 00:10:39;;;;;;;20.15;14.13;;;;;;;-144.99;100.00;57660.31;344215;28;2283;-70
2021/12/16 00:30:01;;;;;;;18.40;12.75;;;;;;;-144.99;100.00;57660.31;344782;28;1828;-68
2021/12/16 00:30:23;;;;;;;19.05;13.23;;;;;;;-144.99;100.00;57660.31;344684;28;2021;-68
2021/12/16 00:31:46;;;;;;;19.90;13.93;;;;;;;-144.99;100.00;57660.31;344894;28;1907;-68
2021/12/16 00:32:07;;;;;;;18.30;13.45;;;;;;;-144.99;100.00;57660.31;344833;28;1963;-68
2021/12/16 00:32:32;;;;;;;18.02;13.23;;;;;;;-144.99;100.00;57660.31;344881;28;1152;-68
2021/12/16 00:32:48;;;;;;;18.52;13.05;;;;;;;-144.99;100.00;57660.31;345069;28;1256;-68
2021/12/16 00:33:30;;;;;;;18.80;13.20;;;;;;;-144.99;100.00;57660.31;344398;28;1591;-68
2021/12/16 00:33:45;;;;;;;19.02;14.00;;;;;;;-144.99;100.00;57660.31;343845;28;1255;-68
2021/12/16 00:34:01;;;;;;;18.65;14.32;;;;;;;-144.99;100.00;57660.31;343892;28;1985;-68
2021/12/16 00:34:18;;;;;;;18.27;13.93;;;;;;;-144.99;100.00;57660.31;344988;28;1032;-68
2021/12/16 00:34:32;;;;;;;19.00;13.70;;;;;;;-144.99;100.00;57660.31;344695;28;1688;-68
2021/12/16 00:34:44;;;;;;;19.42;14.00;;;;;;;-144.99;100.00;57660.31;343864;28;1210;-68
2021/12/16 00:34:57;;;;;;;19.00;13.90;;;;;;;-144.99;100.00;57660.31;343859;28;1624;-68
2021/12/16 00:35:10;;;;;;;20.17;14.25;;;;;;;-144.99;100.00;57660.31;343584;28;1092;-68
2021/12/16 00:35:22;;;;;;;20.63;14.35;;;;;;;-144.99;100.00;57660.31;343609;28;1034;-68
2021/12/16 00:35:35;;;;;;;20.80;14.07;;;;;;;-144.99;100.00;57660.31;343514;28;1335;-68
2021/12/16 00:35:49;;;;;;;19.42;13.85;;;;;;;-144.99;100.00;57660.31;343643;28;1051;-68
2021/12/16 00:36:04;;;;;;;18.58;13.68;;;;;;;-144.99;100.00;57660.31;344748;28;1592;-68
2021/12/16 00:36:16;;;;;;;17.77;13.23;;;;;;;-144.99;100.00;57660.31;344720;28;1110;-68
2021/12/16 00:36:39;;;;;;;18.02;12.98;;;;;;;-144.99;100.00;57660.31;343670;28;1597;-68
2021/12/16 00:36:52;;;;;;;18.17;13.10;;;;;;;-144.99;100.00;57660.31;343588;28;1118;-68
2021/12/16 00:37:04;;;;;;;18.10;13.07;;;;;;;-144.99;100.00;57660.31;344844;28;1590;-68
2021/12/16 00:37:16;;;;;;;18.67;12.75;;;;;;;-144.99;100.00;57660.31;345029;28;1848;-68
2021/12/16 00:37:28;;;;;;;18.50;12.48;;;;;;;-144.99;100.00;57660.31;345237;28;1046;-68
2021/12/16 00:37:41;;;;;;;19.80;12.80;;;;;;;-144.99;100.00;57660.31;345257;28;1046;-68
2021/12/16 00:37:53;;;;;;;18.10;12.68;;;;;;;-144.99;100.00;57660.31;345108;28;1194;-68
2021/12/16 00:38:05;;;;;;;17.20;12.52;;;;;;;-144.99;100.00;57660.31;345495;28;1066;-68
2021/12/16 00:38:18;;;;;;;16.20;12.35;;;;;;;-144.99;100.00;57660.31;345000;28;2062;-68
2021/12/16 00:38:30;;;;;;;17.08;12.82;;;;;;;-144.99;100.00;57660.31;345100;28;2031;-68
2021/12/16 00:38:46;;;;;;;15.98;12.02;;;;;;;-144.99;100.00;57660.31;345236;28;1255;-68
2021/12/16 00:38:59;;;;;;;15.98;11.85;;;;;;;-144.99;100.00;57660.31;345238;28;1901;-68
2021/12/16 00:39:31;;;;;;;16.05;11.88;;;;;;;-144.99;100.00;57660.31;345378;28;1595;-68
2021/12/16 00:39:44;;;;;;;15.20;11.95;;;;;;;-144.99;100.00;57660.31;345271;28;1102;-68
2021/12/16 00:39:56;;;;;;;15.95;11.98;;;;;;;-144.99;100.00;57660.31;345271;28;1584;-68
2021/12/16 00:40:12;;;;;;;16.45;11.93;;;;;;;-144.99;100.00;57660.31;345205;28;1027;-68
2021/12/16 00:40:24;;;;;;;16.05;11.68;;;;;;;-144.99;100.00;57660.31;345124;28;2107;-68
2021/12/16 00:40:40;;;;;;;16.15;11.80;;;;;;;-144.99;100.00;57660.31;345135;28;1326;-68
2021/12/16 00:40:52;;;;;;;16.67;11.85;;;;;;;-144.99;100.00;57660.31;345322;28;1078;-68
2021/12/16 00:41:05;;;;;;;17.65;12.18;;;;;;;-144.99;100.00;57660.31;345181;28;1932;-68
2021/12/16 00:41:17;;;;;;;17.95;12.70;;;;;;;-144.99;100.00;57660.31;345338;28;1232;-68
2021/12/16 00:41:29;;;;;;;18.25;12.82;;;;;;;-144.99;100.00;57660.31;345347;28;1075;-68
2021/12/16 00:41:43;;;;;;;18.52;13.10;;;;;;;-144.99;100.00;57660.31;345462;28;1190;-68
2021/12/16 00:42:03;;;;;;;19.10;13.18;;;;;;;-144.99;100.00;57660.31;345377;28;1224;-68
2021/12/16 00:42:46;;;;;;;18.98;12.93;;;;;;;-144.99;100.00;57660.31;345301;28;1066;-68
2021/12/16 00:43:12;;;;;;;16.45;12.27;;;;;;;-144.99;100.00;57660.31;345121;28;2104;-68
2021/12/16 00:43:34;;;;;;;16.65;12.68;;;;;;;-144.99;100.00;57660.31;345151;28;2580;-68
2021/12/16 00:44:00;;;;;;;16.60;12.65;;;;;;;-144.99;100.00;57660.31;345388;28;1737;-68
2021/12/16 00:44:36;;;;;;;17.52;12.75;;;;;;;-144.99;100.00;57660.31;343869;28;1166;-68
2021/12/16 00:45:05;;;;;;;17.30;13.18;;;;;;;-144.99;100.00;57660.31;343890;28;930;-68
2021/12/16 00:45:41;;;;;;;17.50;12.88;;;;;;;-144.99;100.00;57660.31;343950;28;1293;-68
2021/12/16 00:46:28;;;;;;;17.58;13.02;;;;;;;-144.99;100.00;57660.31;344792;28;1912;-68
2021/12/16 00:47:28;;;;;;;18.35;12.75;;;;;;;-144.99;100.00;57660.31;345045;28;2112;-68
2021/12/16 00:49:20;;;;;;;17.30;13.25;;;;;;;-144.99;100.00;57660.31;346354;28;1567;-68
2021/12/16 00:49:39;;;;;;;17.98;13.02;;;;;;;-144.99;100.00;57660.31;345476;28;1149;-68
2021/12/16 00:49:53;;;;;;;17.70;12.80;;;;;;;-144.99;100.00;57660.31;345237;28;2406;-68
2021/12/16 00:50:21;;;;;;;20.85;13.93;;;;;;;-144.99;100.00;57660.31;345271;28;1912;-68
2021/12/16 00:54:11;;;;;;;19.58;13.65;;;;;;;-144.99;100.00;57660.31;345283;28;1073;-68
2021/12/16 00:54:23;;;;;;;18.92;13.60;;;;;;;-144.99;100.00;57660.31;343852;28;1275;-68
2021/12/16 00:54:37;;;;;;;18.42;13.65;;;;;;;-144.99;100.00;57660.31;343954;28;1043;-68
2021/12/16 00:54:57;;;;;;;18.35;13.68;;;;;;;-144.99;100.00;57660.31;343909;28;1217;-68
2021/12/16 00:55:29;;;;;;;19.83;14.27;;;;;;;-144.99;100.00;57660.31;343942;28;1180;-68
2021/12/16 00:55:53;;;;;;;19.10;13.65;;;;;;;-144.99;100.00;57660.31;344550;28;1996;-68
2021/12/16 00:56:07;;;;;;;19.58;13.77;;;;;;;-144.99;100.00;57660.31;345146;28;1613;-68
2021/12/16 00:56:19;;;;;;;19.80;13.65;;;;;;;-144.99;100.00;57660.31;345141;28;1066;-68
2021/12/16 00:56:31;;;;;;;19.02;13.45;;;;;;;-144.99;100.00;57660.31;345153;28;1096;-68
2021/12/16 00:56:54;;;;;;;18.42;13.43;;;;;;;-144.99;100.00;57660.31;344673;28;1902;-68
2021/12/16 00:57:12;;;;;;;19.40;13.75;;;;;;;-144.99;100.00;57660.31;343915;28;1035;-68
2021/12/16 00:57:24;;;;;;;18.63;12.95;;;;;;;-144.99;100.00;57660.31;343831;28;1114;-68
2021/12/16 00:57:38;;;;;;;18.75;12.90;;;;;;;-144.99;100.00;57660.31;344347;28;1560;-68
2021/12/16 00:57:51;;;;;;;20.20;13.20;;;;;;;-144.99;100.00;57660.31;344012;28;1692;-68
2021/12/16 00:58:03;;;;;;;19.58;13.32;;;;;;;-144.99;100.00;57660.31;345206;28;1590;-67
2021/12/16 00:58:19;;;;;;;20.17;13.95;;;;;;;-144.99;100.00;57660.31;345206;28;1037;-68
2021/12/16 00:58:40;;;;;;;21.67;14.27;;;;;;;-144.99;100.00;57660.31;343869;28;1287;-68
2021/12/16 00:58:57;;;;;;;19.90;13.60;;;;;;;-144.99;100.00;57660.31;343982;28;1206;-68
2021/12/16 00:59:11;;;;;;;18.42;13.32;;;;;;;-144.99;100.00;57660.31;345277;28;1168;-68
2021/12/16 00:59:26;;;;;;;18.45;13.35;;;;;;;-144.99;100.00;57660.31;345165;28;1548;-68
2021/12/16 00:59:42;;;;;;;18.85;13.80;;;;;;;-144.99;100.00;57660.31;345322;28;991;-68
2021/12/16 00:59:56;;;;;;;18.23;13.32;;;;;;;-144.99;100.00;57660.31;344484;28;1921;-68
2021/12/16 01:00:13;;;;;;;18.50;13.20;;;;;;;-144.99;100.00;57660.31;344460;28;1926;-68
2021/12/16 01:00:28;;;;;;;18.45;13.27;;;;;;;-144.99;100.00;57660.31;345278;28;1102;-68
2021/12/16 01:00:43;;;;;;;16.70;12.68;;;;;;;-144.99;100.00;57660.31;345279;28;927;-68
2021/12/16 01:01:11;;;;;;;17.45;13.02;;;;;;;-144.99;100.00;57660.31;344913;28;2143;-68
2021/12/16 01:01:53;;;;;;;23.40;14.25;;;;;;;-144.99;100.00;57660.31;344955;28;1722;-68
2021/12/16 01:03:20;;;;;;;18.17;13.07;;;;;;;-144.99;100.00;57660.31;343937;28;1090;-68
2021/12/16 01:03:34;;;;;;;20.63;13.80;;;;;;;-144.99;100.00;57660.31;342571;28;1114;-68
2021/12/16 01:04:11;;;;;;;19.42;13.40;;;;;;;-144.99;100.00;57660.31;343651;28;1066;-68
2021/12/16 01:05:30;;;;;;;20.02;13.85;;;;;;;-144.99;100.00;57660.31;345130;28;1609;-68
2021/12/16 01:08:06;;;;;;;18.95;12.60;;;;;;;-144.99;100.00;57660.31;346210;28;1002;-68
2021/12/16 01:08:34;;;;;;;18.02;12.77;;;;;;;-144.99;100.00;57660.31;345557;28;1072;-68
2021/12/16 01:09:13;;;;;;;19.48;13.32;;;;;;;-144.99;100.00;57660.31;345113;28;1051;-68
2021/12/16 01:34:01;;;;;;;16.80;12.00;;;;;;;-144.99;100.00;57660.31;343752;28;1011;-68
2021/12/16 01:34:31;;;;;;;16.55;11.90;;;;;;;-144.99;100.00;57660.31;344640;28;1829;-68
2021/12/16 01:35:35;;;;;;;16.13;12.10;;;;;;;-144.99;100.00;57660.31;345299;28;1220;-68
2021/12/16 01:37:07;;;;;;;15.80;11.32;;;;;;;-144.99;100.00;57660.31;345204;28;1323;-68
2021/12/16 01:40:20;;;;;;;15.43;10.93;;;;;;;-144.99;100.00;57660.31;345287;28;1581;-68
2021/12/16 01:41:01;;;;;;;14.55;10.75;;;;;;;-144.99;100.00;57660.31;343650;28;1047;-67
2021/12/16 01:42:38;;;;;;;14.63;10.85;;;;;;;-144.99;100.00;57660.31;344039;28;1062;-68
2021/12/16 01:46:37;;;;;;;16.85;12.38;;;;;;;-144.99;100.00;57660.31;344000;28;1168;-68
2021/12/16 01:47:25;;;;;;;17.75;11.95;;;;;;;-144.99;100.00;57660.31;345131;28;1199;-68
2021/12/16 01:48:09;;;;;;;16.80;12.10;;;;;;;-144.99;100.00;57660.31;344842;28;1296;-68
2021/12/16 01:50:06;;;;;;;17.15;12.00;;;;;;;-144.99;100.00;57660.31;342167;28;1036;-68
2021/12/16 01:50:30;;;;;;;16.05;11.70;;;;;;;-144.99;100.00;57660.31;343882;28;1075;-68
2021/12/16 01:50:50;;;;;;;16.85;11.60;;;;;;;-144.99;100.00;57660.31;343819;28;1094;-68
2021/12/16 01:51:17;;;;;;;18.05;12.27;;;;;;;-144.99;100.00;57660.31;343686;28;1234;-68
2021/12/16 01:51:42;;;;;;;16.65;11.95;;;;;;;-144.99;100.00;57660.31;343652;28;1330;-68
2021/12/16 01:52:34;;;;;;;16.45;12.05;;;;;;;-144.99;100.00;57660.31;344048;28;1037;-68
2021/12/16 01:55:08;;;;;;;18.30;13.10;;;;;;;-144.99;100.00;57660.31;346383;28;1281;-68
2021/12/16 01:55:37;;;;;;;18.08;13.00;;;;;;;-144.99;100.00;57660.31;345700;28;1698;-68
2021/12/16 01:56:07;;;;;;;17.63;12.45;;;;;;;-144.99;100.00;57660.31;345372;28;1077;-68
2021/12/16 01:57:24;;;;;;;16.73;12.68;;;;;;;-144.99;100.00;57660.31;343793;28;1070;-68
2021/12/16 01:57:25;;;;;;;17.00;12.57;;;;;;;-144.99;100.00;57660.31;341785;28;1031;-68
2021/12/16 01:57:47;;;;;;;16.60;12.68;;;;;;;-144.99;100.00;57660.31;344246;28;1885;-68
2021/12/16 01:58:11;;;;;;;18.60;13.23;;;;;;;-144.99;100.00;57660.31;345359;28;1093;-68
2021/12/16 01:58:27;;;;;;;17.63;12.93;;;;;;;-144.99;100.00;57660.31;345308;28;1264;-68
2021/12/16 01:58:39;;;;;;;17.77;12.60;;;;;;;-144.99;100.00;57660.31;345256;28;1100;-68
2021/12/16 01:58:52;;;;;;;17.65;12.40;;;;;;;-144.99;100.00;57660.31;345418;28;1497;-68
2021/12/16 01:59:06;;;;;;;17.85;12.80;;;;;;;-144.99;100.00;57660.31;345149;28;1088;-68
2021/12/16 01:59:21;;;;;;;17.95;12.95;;;;;;;-144.99;100.00;57660.31;345195;28;1195;-68
2021/12/16 01:59:36;;;;;;;16.95;12.60;;;;;;;-144.99;100.00;57660.31;345044;28;1891;-68
2021/12/16 01:59:58;;;;;;;17.15;12.93;;;;;;;-144.99;100.00;57660.31;345242;28;1055;-68
2021/12/16 02:00:28;;;;;;;19.30;13.43;;;;;;;-144.99;100.00;57660.31;345197;28;1053;-68
2021/12/16 02:01:11;;;;;;;16.80;12.43;;;;;;;-144.99;100.00;57660.31;345367;28;1057;-68
2021/12/16 02:01:32;;;;;;;18.00;12.48;;;;;;;-144.99;100.00;57660.31;343599;28;1318;-68
2021/12/16 02:01:45;;;;;;;18.52;12.70;;;;;;;-144.99;100.00;57660.31;343982;28;1679;-68
2021/12/16 02:02:04;;;;;;;18.48;13.10;;;;;;;-144.99;100.00;57660.31;345227;28;1281;-68
2021/12/16 02:02:45;;;;;;;18.08;13.35;;;;;;;-144.99;100.00;57660.31;345203;28;1086;-68
2021/12/16 02:03:00;;;;;;;18.65;13.07;;;;;;;-144.99;100.00;57660.31;345111;28;1142;-68
2021/12/16 02:03:15;;;;;;;17.88;12.70;;;;;;;-144.99;100.00;57660.31;345089;28;1311;-68
2021/12/16 02:03:40;;;;;;;18.08;12.77;;;;;;;-144.99;100.00;57660.31;345080;28;986;-68
2021/12/16 02:04:00;;;;;;;18.38;12.88;;;;;;;-144.99;100.00;57660.31;345199;28;1079;-68
2021/12/16 02:04:29;;;;;;;18.85;12.93;;;;;;;-144.99;100.00;57660.31;345022;28;1311;-68
2021/12/16 02:05:06;;;;;;;17.17;12.75;;;;;;;-144.99;100.00;57660.31;345025;28;1287;-68
2021/12/16 02:07:29;;;;;;;18.48;13.68;;;;;;;-144.99;100.00;57660.31;343631;28;1064;-68
2021/12/16 02:08:06;;;;;;;19.40;13.10;;;;;;;-144.99;100.00;57660.31;343296;28;1100;-68
2021/12/16 02:08:38;;;;;;;17.80;12.93;;;;;;;-144.99;100.00;57660.31;343709;28;2264;-68
2021/12/16 02:08:52;;;;;;;18.35;12.65;;;;;;;-144.99;100.00;57660.31;343823;28;1118;-68
2021/12/16 02:09:17;;;;;;;19.40;12.95;;;;;;;-144.99;100.00;57660.31;343860;28;1046;-68
2021/12/16 02:09:41;;;;;;;19.30;13.73;;;;;;;-144.99;100.00;57660.31;343437;28;1370;-68
2021/12/16 02:10:01;;;;;;;19.08;13.35;;;;;;;-144.99;100.00;57660.31;343772;28;1046;-68
2021/12/16 02:10:16;;;;;;;17.45;12.60;;;;;;;-144.99;100.00;57660.31;344998;28;1098;-68
2021/12/16 02:10:37;;;;;;;16.42;12.10;;;;;;;-144.99;100.00;57660.31;344927;28;1298;-68
2021/12/16 02:11:06;;;;;;;18.45;12.25;;;;;;;-144.99;100.00;57660.31;344923;28;1035;-68
2021/12/16 02:11:30;;;;;;;19.05;12.20;;;;;;;-144.99;100.00;57660.31;344829;28;1012;-68
2021/12/16 02:11:59;;;;;;;18.65;12.52;;;;;;;-144.99;100.00;57660.31;344852;28;1272;-68
2021/12/16 02:12:39;;;;;;;16.80;12.20;;;;;;;-144.99;100.00;57660.31;344362;28;1259;-68
2021/12/16 02:28:44;;;;;;;21.58;15.40;;;;;;;-144.99;100.00;57660.31;344084;28;1065;-68
2021/12/16 02:31:30;;;;;;;20.02;14.80;;;;;;;-144.99;100.00;57660.31;345073;28;1069;-68
2021/12/16 02:32:12;;;;;;;23.98;14.98;;;;;;;-144.99;100.00;57660.31;345217;28;1260;-68
2021/12/16 02:35:26;;;;;;;22.35;15.18;;;;;;;-144.99;100.00;57660.31;344802;28;1259;-68
2021/12/16 02:36:25;;;;;;;22.75;15.60;;;;;;;-144.99;100.00;57660.31;345162;28;1129;-68
2021/12/16 02:36:26;;;;;;;23.13;15.38;;;;;;;-144.99;100.00;57660.31;346122;28;1046;-68
2021/12/16 02:36:44;;;;;;;25.08;15.48;;;;;;;-144.99;100.00;57660.31;345135;28;1155;-68
2021/12/16 02:36:56;;;;;;;24.90;15.40;;;;;;;-144.99;100.00;57660.31;344911;28;1003;-68
2021/12/16 02:37:16;;;;;;;24.02;15.98;;;;;;;-144.99;100.00;57660.31;345113;28;1852;-68
2021/12/16 02:37:32;;;;;;;23.35;16.13;;;;;;;-144.99;100.00;57660.31;345309;28;1080;-68
2021/12/16 02:37:48;;;;;;;23.20;15.77;;;;;;;-144.99;100.00;57660.31;345232;28;1145;-68
2021/12/16 02:38:04;;;;;;;21.73;15.27;;;;;;;-144.99;100.00;57660.31;344621;28;1978;-68
2021/12/16 02:38:18;;;;;;;21.63;15.32;;;;;;;-144.99;100.00;57660.31;343918;28;1173;-68
2021/12/16 02:38:33;;;;;;;22.58;15.27;;;;;;;-144.99;100.00;57660.31;343660;28;1057;-68
2021/12/16 02:38:48;;;;;;;21.48;14.55;;;;;;;-144.99;100.00;57660.31;343838;28;1174;-68
2021/12/16 02:39:06;;;;;;;20.70;14.73;;;;;;;-144.99;100.00;57660.31;344158;28;1222;-68
2021/12/16 02:39:21;;;;;;;23.00;15.02;;;;;;;-144.99;100.00;57660.31;345042;28;1037;-68
2021/12/16 02:39:34;;;;;;;23.63;15.30;;;;;;;-144.99;100.00;57660.31;345122;28;1023;-68
2021/12/16 02:39:46;;;;;;;22.35;15.25;;;;;;;-144.99;100.00;57660.31;345183;28;1062;-68
2021/12/16 02:40:01;;;;;;;21.80;15.18;;;;;;;-144.99;100.00;57660.31;344237;28;2135;-68
2021/12/16 02:40:15;;;;;;;22.13;15.38;;;;;;;-144.99;100.00;57660.31;343928;28;1969;-68
2021/12/16 02:40:27;;;;;;;21.33;14.57;;;;;;;-144.99;100.00;57660.31;343994;28;1031;-68
2021/12/16 02:40:40;;;;;;;21.65;14.35;;;;;;;-144.99;100.00;57660.31;343832;28;937;-68
2021/12/16 02:40:53;;;;;;;22.25;14.93;;;;;;;-144.99;100.00;57660.31;344032;28;1291;-68
2021/12/16 02:41:05;;;;;;;22.98;15.65;;;;;;;-144.99;100.00;57660.31;345096;28;2004;-68
2021/12/16 02:41:18;;;;;;;22.88;15.70;;;;;;;-144.99;100.00;57660.31;345042;28;1107;-68
2021/12/16 02:41:30;;;;;;;23.25;15.73;;;;;;;-144.99;100.00;57660.31;345099;28;1083;-68
2021/12/16 02:41:45;;;;;;;22.05;14.95;;;;;;;-144.99;100.00;57660.31;344697;28;1552;-68
2021/12/16 02:42:12;;;;;;;22.67;14.57;;;;;;;-144.99;100.00;57660.31;343867;28;1626;-68
2021/12/16 02:42:35;;;;;;;23.27;15.23;;;;;;;-144.99;100.00;57660.31;344993;28;1015;-68
2021/12/16 02:43:26;;;;;;;23.38;15.15;;;;;;;-144.99;100.00;57660.31;344541;28;1722;-68
2021/12/16 02:48:27;;;;;;;23.67;15.48;;;;;;;-144.99;100.00;57660.31;344807;28;1248;-68
2021/12/16 02:48:29;;;;;;;22.52;15.32;;;;;;;-144.99;100.00;57660.31;343901;28;1673;-68
2021/12/16 02:48:44;;;;;;;22.25;15.60;;;;;;;-144.99;100.00;57660.31;343852;28;1963;-68
2021/12/16 02:48:56;;;;;;;22.25;15.85;;;;;;;-144.99;100.00;57660.31;343473;28;1576;-68
2021/12/16 02:49:08;;;;;;;21.70;15.70;;;;;;;-144.99;100.00;57660.31;344852;28;1315;-68
2021/12/16 02:49:20;;;;;;;21.75;15.45;;;;;;;-144.99;100.00;57660.31;345004;28;1200;-68
2021/12/16 02:49:33;;;;;;;22.83;15.70;;;;;;;-144.99;100.00;57660.31;344774;28;1036;-68
2021/12/16 02:49:47;;;;;;;24.38;15.57;;;;;;;-144.99;100.00;57660.31;344893;28;1316;-68
2021/12/16 02:49:59;;;;;;;24.75;15.23;;;;;;;-144.99;100.00;57660.31;344359;28;2137;-68
2021/12/16 02:50:12;;;;;;;23.15;15.00;;;;;;;-144.99;100.00;57660.31;344623;28;2265;-68
2021/12/16 02:50:25;;;;;;;23.15;15.68;;;;;;;-144.99;100.00;57660.31;344757;28;1012;-68
2021/12/16 02:50:37;;;;;;;23.35;16.02;;;;;;;-144.99;100.00;57660.31;344933;28;1088;-68
2021/12/16 02:50:50;;;;;;;23.02;15.82;;;;;;;-144.99;100.00;57660.31;344944;28;1127;-68
2021/12/16 02:51:04;;;;;;;22.67;15.43;;;;;;;-144.99;100.00;57660.31;344742;28;1491;-68
2021/12/16 02:51:24;;;;;;;23.27;15.82;;;;;;;-144.99;100.00;57660.31;344820;28;1142;-68
2021/12/16 02:51:36;;;;;;;23.08;15.70;;;;;;;-144.99;100.00;57660.31;344193;28;2052;-67
2021/12/16 02:51:48;;;;;;;22.15;15.40;;;;;;;-144.99;100.00;57660.31;344851;28;1843;-68
2021/12/16 02:52:00;;;;;;;22.30;15.52;;;;;;;-144.99;100.00;57660.31;344449;28;1491;-67
2021/12/16 02:52:14;;;;;;;22.27;15.35;;;;;;;-144.99;100.00;57660.31;344849;28;1669;-68
2021/12/16 02:52:28;;;;;;;22.15;15.63;;;;;;;-144.99;100.00;57660.31;344775;28;1043;-68
2021/12/16 02:52:40;;;;;;;23.35;15.93;;;;;;;-144.99;100.00;57660.31;344907;28;1102;-68
2021/12/16 02:52:53;;;;;;;22.45;15.40;;;;;;;-144.99;100.00;57660.31;344679;28;1317;-68
2021/12/16 02:53:05;;;;;;;21.85;14.65;;;;;;;-144.99;100.00;57660.31;344368;28;1975;-68
2021/12/16 02:53:17;;;;;;;22.08;14.73;;;;;;;-144.99;100.00;57660.31;344784;28;1186;-68
2021/12/16 02:53:31;;;;;;;22.05;14.88;;;;;;;-144.99;100.00;57660.31;344818;28;1737;-68
2021/12/16 02:53:53;;;;;;;22.80;15.40;;;;;;;-144.99;100.00;57660.31;344774;28;1047;-68
2021/12/16 02:54:06;;;;;;;23.63;15.95;;;;;;;-144.99;100.00;57660.31;344140;28;1854;-68
2021/12/16 02:54:18;;;;;;;23.70;15.50;;;;;;;-144.99;100.00;57660.31;344593;28;1965;-68
2021/12/16 02:54:30;;;;;;;23.45;15.45;;;;;;;-144.99;100.00;57660.31;345034;28;1293;-68
2021/12/16 02:54:44;;;;;;;23.80;15.52;;;;;;;-144.99;100.00;57660.31;345096;28;2198;-68
2021/12/16 02:54:57;;;;;;;24.83;15.55;;;;;;;-144.99;100.00;57660.31;344709;28;1897;-68
2021/12/16 02:55:10;;;;;;;23.98;15.45;;;;;;;-144.99;100.00;57660.31;344913;28;2332;-68
2021/12/16 02:55:23;;;;;;;22.13;15.63;;;;;;;-144.99;100.00;57660.31;345098;28;1031;-68
2021/12/16 02:55:35;;;;;;;23.25;15.70;;;;;;;-144.99;100.00;57660.31;346217;28;1077;-68
2021/12/16 02:55:47;;;;;;;23.58;15.50;;;;;;;-144.99;100.00;57660.31;346409;28;1065;-68
2021/12/16 02:56:00;;;;;;;21.98;15.20;;;;;;;-144.99;100.00;57660.31;346086;28;1608;-68
2021/12/16 02:56:13;;;;;;;22.05;15.32;;;;;;;-144.99;100.00;57660.31;346121;28;1070;-68
2021/12/16 02:56:25;;;;;;;21.90;15.18;;;;;;;-144.99;100.00;57660.31;346285;28;1148;-68
2021/12/16 02:56:37;;;;;;;22.15;15.23;;;;;;;-144.99;100.00;57660.31;345770;28;2108;-68
2021/12/16 02:56:50;;;;;;;22.65;15.82;;;;;;;-144.99;100.00;57660.31;344936;28;1815;-68
2021/12/16 02:57:03;;;;;;;22.67;16.02;;;;;;;-144.99;100.00;57660.31;346127;28;1749;-68
2021/12/16 02:57:17;;;;;;;22.52;15.73;;;;;;;-144.99;100.00;57660.31;346005;28;1274;-68
2021/12/16 02:57:32;;;;;;;21.67;15.05;;;;;;;-144.99;100.00;57660.31;346591;28;1043;-68
2021/12/16 02:57:51;;;;;;;21.00;14.88;;;;;;;-144.99;100.00;57660.31;345108;28;1007;-68
2021/12/16 02:58:03;;;;;;;22.00;15.52;;;;;;;-144.99;100.00;57660.31;344915;28;1596;-68
2021/12/16 02:58:16;;;;;;;23.17;15.75;;;;;;;-144.99;100.00;57660.31;345004;28;1059;-68
2021/12/16 02:58:28;;;;;;;23.10;15.77;;;;;;;-144.99;100.00;57660.31;345067;28;1094;-68
2021/12/16 02:58:45;;;;;;;23.48;15.98;;;;;;;-144.99;100.00;57660.31;344321;28;2720;-68
2021/12/16 02:58:59;;;;;;;23.75;15.50;;;;;;;-144.99;100.00;57660.31;344074;28;1561;-68
2021/12/16 02:59:11;;;;;;;22.92;14.73;;;;;;;-144.99;100.00;57660.31;344925;28;1332;-68
2021/12/16 02:59:27;;;;;;;21.67;14.52;;;;;;;-144.99;100.00;57660.31;345033;28;1910;-68
2021/12/16 02:59:41;;;;;;;21.88;14.95;;;;;;;-144.99;100.00;57660.31;346393;28;1089;-68
2021/12/16 02:59:55;;;;;;;22.27;15.52;;;;;;;-144.99;100.00;57660.31;346327;28;1371;-68
2021/12/16 03:00:12;;;;;;;21.75;15.77;;;;;;;-144.99;100.00;57660.31;343788;28;1278;-68
2021/12/16 03:00:24;;;;;;;23.50;15.75;;;;;;;-144.99;100.00;57660.31;343502;28;2208;-68
2021/12/16 03:00:45;;;;;;;24.45;16.02;;;;;;;-144.99;100.00;57660.31;344502;28;1854;-68
2021/12/16 03:01:07;;;;;;;23.48;15.90;;;;;;;-144.99;100.00;57660.31;345020;28;1771;-68
2021/12/16 03:01:39;;;;;;;24.30;16.15;;;;;;;-144.99;100.00;57660.31;345623;28;1871;-68
2021/12/16 03:01:53;;;;;;;22.00;15.43;;;;;;;-144.99;100.00;57660.31;346570;28;1063;-68
2021/12/16 03:02:11;;;;;;;22.08;15.50;;;;;;;-144.99;100.00;57660.31;345267;28;1882;-68
2021/12/16 03:02:25;;;;;;;23.95;16.45;;;;;;;-144.99;100.00;57660.31;344779;28;1981;-68
2021/12/16 03:02:38;;;;;;;23.02;16.42;;;;;;;-144.99;100.00;57660.31;345157;28;1101;-68
2021/12/16 03:02:52;;;;;;;22.25;16.08;;;;;;;-144.99;100.00;57660.31;345067;28;1339;-68
2021/12/16 03:03:05;;;;;;;22.52;16.08;;;;;;;-144.99;100.00;57660.31;344881;28;1643;-68
2021/12/16 03:03:17;;;;;;;23.67;15.85;;;;;;;-144.99;100.00;57660.31;345021;28;1098;-68
2021/12/16 03:03:29;;;;;;;24.08;15.88;;;;;;;-144.99;100.00;57660.31;345028;28;1055;-68
2021/12/16 03:03:42;;;;;;;23.58;15.90;;;;;;;-144.99;100.00;57660.31;345102;28;1170;-68
2021/12/16 03:03:59;;;;;;;22.83;15.52;;;;;;;-144.99;100.00;57660.31;345139;28;1225;-68
2021/12/16 03:04:14;;;;;;;24.23;16.10;;;;;;;-144.99;100.00;57660.31;344361;28;2143;-68
2021/12/16 03:04:29;;;;;;;23.73;16.30;;;;;;;-144.99;100.00;57660.31;343807;28;1900;-68
2021/12/16 03:04:43;;;;;;;24.58;15.80;;;;;;;-144.99;100.00;57660.31;344535;28;1930;-68
2021/12/16 03:04:55;;;;;;;24.88;15.75;;;;;;;-144.99;100.00;57660.31;345150;28;1654;-68
2021/12/16 03:05:09;;;;;;;24.52;16.05;;;;;;;-144.99;100.00;57660.31;344301;28;1973;-68
2021/12/16 03:05:22;;;;;;;24.50;16.45;;;;;;;-144.99;100.00;57660.31;345191;28;1022;-68
2021/12/16 03:05:35;;;;;;;24.25;16.23;;;;;;;-144.99;100.00;57660.31;344817;28;1058;-68
2021/12/16 03:05:47;;;;;;;24.00;16.05;;;;;;;-144.99;100.00;57660.31;344812;28;2143;-68
2021/12/16 03:06:01;;;;;;;22.25;15.82;;;;;;;-144.99;100.00;57660.31;345039;28;1901;-68
2021/12/16 03:06:13;;;;;;;23.95;16.00;;;;;;;-144.99;100.00;57660.31;345232;28;1139;-68
2021/12/16 03:06:29;;;;;;;24.90;15.90;;;;;;;-144.99;100.00;57660.31;344938;28;1725;-68
2021/12/16 03:06:43;;;;;;;24.77;16.23;;;;;;;-144.99;100.00;57660.31;345151;28;1292;-68
2021/12/16 03:06:58;;;;;;;24.95;16.50;;;;;;;-144.99;100.00;57660.31;344948;28;1023;-68
2021/12/16 03:07:12;;;;;;;24.67;16.27;;;;;;;-144.99;100.00;57660.31;343779;28;1054;-68
2021/12/16 03:07:24;;;;;;;22.98;16.13;;;;;;;-144.99;100.00;57660.31;343862;28;1025;-68
2021/12/16 03:07:39;;;;;;;23.58;15.93;;;;;;;-144.99;100.00;57660.31;343661;28;1071;-68
2021/12/16 03:07:52;;;;;;;24.73;16.30;;;;;;;-144.99;100.00;57660.31;343768;28;885;-68